sensor_id;sensor_type;location;lat;lon;timestamp;P1;durP1;ratioP1;P2;durP2;ratioP2
17784;SDS011;9016;53.582;10.062;2023-01-08T00:01:03;3.37;;;3.00;;
17784;SDS011;9016;53.582;10.062;2023-01-08T00:03:32;4.20;;;3.50;;
17784;SDS011;9016;53.582;10.062;2023-01-08T00:06:00;3.37;;;3.10;;
17784;SDS011;9016;53.582;10.062;2023-01-08T00:08:31;4.07;;;3.70;;
17784;SDS011;9016;53.582;10.062;2023-01-08T00:10:59;3.50;;;3.20;;
17784;SDS011;9016;53.582;10.062;2023-01-08T00:13:27;3.40;;;3.10;;
17784;SDS011;9016;53.582;10.062;2023-01-08T00:15:55;3.43;;;3.13;;
17784;SDS011;9016;53.582;10.062;2023-01-08T00:18:24;3.80;;;3.40;;
17784;SDS011;9016;53.582;10.062;2023-01-08T00:20:52;3.37;;;3.07;;
17784;SDS011;9016;53.582;10.062;2023-01-08T00:23:20;5.10;;;3.60;;
17784;SDS011;9016;53.582;10.062;2023-01-08T00:25:49;4.43;;;3.30;;
17784;SDS011;9016;53.582;10.062;2023-01-08T00:28:17;3.90;;;3.40;;
17784;SDS011;9016;53.582;10.062;2023-01-08T00:30:46;3.67;;;3.17;;
17784;SDS011;9016;53.582;10.062;2023-01-08T00:33:14;3.40;;;3.10;;
17784;SDS011;9016;53.582;10.062;2023-01-08T00:35:42;3.63;;;3.33;;
17784;SDS011;9016;53.582;10.062;2023-01-08T00:38:10;6.17;;;3.50;;
17784;SDS011;9016;53.582;10.062;2023-01-08T00:40:38;3.80;;;3.30;;
17784;SDS011;9016;53.582;10.062;2023-01-08T00:43:08;3.73;;;3.30;;
17784;SDS011;9016;53.582;10.062;2023-01-08T00:45:36;4.40;;;3.30;;
17784;SDS011;9016;53.582;10.062;2023-01-08T00:48:04;4.10;;;3.47;;
17784;SDS011;9016;53.582;10.062;2023-01-08T00:50:33;4.07;;;3.40;;
17784;SDS011;9016;53.582;10.062;2023-01-08T00:53:01;4.13;;;3.23;;
17784;SDS011;9016;53.582;10.062;2023-01-08T00:55:29;3.00;;;2.80;;
17784;SDS011;9016;53.582;10.062;2023-01-08T00:57:57;4.23;;;3.20;;
17784;SDS011;9016;53.582;10.062;2023-01-08T01:00:26;3.87;;;3.40;;
17784;SDS011;9016;53.582;10.062;2023-01-08T01:02:54;3.60;;;3.30;;
17784;SDS011;9016;53.582;10.062;2023-01-08T01:05:22;4.30;;;3.50;;
17784;SDS011;9016;53.582;10.062;2023-01-08T01:07:50;3.60;;;3.30;;
17784;SDS011;9016;53.582;10.062;2023-01-08T01:10:18;4.70;;;3.33;;
17784;SDS011;9016;53.582;10.062;2023-01-08T01:12:46;3.40;;;3.10;;
17784;SDS011;9016;53.582;10.062;2023-01-08T01:15:15;3.80;;;3.10;;
17784;SDS011;9016;53.582;10.062;2023-01-08T01:17:45;5.90;;;3.07;;
17784;SDS011;9016;53.582;10.062;2023-01-08T01:20:14;3.23;;;2.93;;
17784;SDS011;9016;53.582;10.062;2023-01-08T01:22:42;3.13;;;2.80;;
17784;SDS011;9016;53.582;10.062;2023-01-08T01:25:11;3.27;;;2.97;;
17784;SDS011;9016;53.582;10.062;2023-01-08T01:27:39;4.20;;;2.80;;
17784;SDS011;9016;53.582;10.062;2023-01-08T01:30:07;3.83;;;3.27;;
17784;SDS011;9016;53.582;10.062;2023-01-08T01:32:36;3.60;;;3.30;;
17784;SDS011;9016;53.582;10.062;2023-01-08T01:35:06;4.17;;;3.30;;
17784;SDS011;9016;53.582;10.062;2023-01-08T01:37:34;5.40;;;3.13;;
17784;SDS011;9016;53.582;10.062;2023-01-08T01:40:03;3.63;;;3.33;;
17784;SDS011;9016;53.582;10.062;2023-01-08T01:42:32;3.73;;;3.27;;
17784;SDS011;9016;53.582;10.062;2023-01-08T01:45:14;4.20;;;3.23;;
17784;SDS011;9016;53.582;10.062;2023-01-08T01:47:44;3.47;;;3.17;;
17784;SDS011;9016;53.582;10.062;2023-01-08T01:50:16;3.40;;;3.10;;
17784;SDS011;9016;53.582;10.062;2023-01-08T01:52:48;3.63;;;3.10;;
17784;SDS011;9016;53.582;10.062;2023-01-08T01:55:20;4.43;;;4.00;;
17784;SDS011;9016;53.582;10.062;2023-01-08T01:57:49;3.40;;;3.10;;
17784;SDS011;9016;53.582;10.062;2023-01-08T02:00:21;3.00;;;2.80;;
17784;SDS011;9016;53.582;10.062;2023-01-08T02:02:49;3.73;;;2.93;;
17784;SDS011;9016;53.582;10.062;2023-01-08T02:05:19;3.77;;;2.70;;
17784;SDS011;9016;53.582;10.062;2023-01-08T02:07:49;3.20;;;2.90;;
17784;SDS011;9016;53.582;10.062;2023-01-08T02:10:24;3.33;;;2.90;;
17784;SDS011;9016;53.582;10.062;2023-01-08T02:13:00;3.23;;;2.93;;
17784;SDS011;9016;53.582;10.062;2023-01-08T02:15:37;2.87;;;2.67;;
17784;SDS011;9016;53.582;10.062;2023-01-08T02:18:12;2.73;;;2.53;;
17784;SDS011;9016;53.582;10.062;2023-01-08T02:20:46;4.13;;;2.70;;
17784;SDS011;9016;53.582;10.062;2023-01-08T02:23:22;3.50;;;3.20;;
17784;SDS011;9016;53.582;10.062;2023-01-08T02:28:46;3.57;;;3.20;;
17784;SDS011;9016;53.582;10.062;2023-01-08T02:31:18;3.63;;;3.33;;
17784;SDS011;9016;53.582;10.062;2023-01-08T02:33:47;3.00;;;2.70;;
17784;SDS011;9016;53.582;10.062;2023-01-08T02:36:21;3.70;;;3.07;;
17784;SDS011;9016;53.582;10.062;2023-01-08T02:39:05;3.50;;;3.20;;
17784;SDS011;9016;53.582;10.062;2023-01-08T02:41:49;3.47;;;3.17;;
17784;SDS011;9016;53.582;10.062;2023-01-08T02:44:22;5.00;;;3.37;;
17784;SDS011;9016;53.582;10.062;2023-01-08T02:47:01;2.80;;;2.60;;
17784;SDS011;9016;53.582;10.062;2023-01-08T02:49:32;3.47;;;3.07;;
17784;SDS011;9016;53.582;10.062;2023-01-08T02:52:05;3.60;;;2.90;;
17784;SDS011;9016;53.582;10.062;2023-01-08T02:54:37;3.17;;;2.87;;
17784;SDS011;9016;53.582;10.062;2023-01-08T02:57:10;3.00;;;2.80;;
17784;SDS011;9016;53.582;10.062;2023-01-08T02:59:41;3.30;;;3.00;;
17784;SDS011;9016;53.582;10.062;2023-01-08T03:02:11;4.57;;;2.77;;
17784;SDS011;9016;53.582;10.062;2023-01-08T03:04:42;4.73;;;3.10;;
17784;SDS011;9016;53.582;10.062;2023-01-08T03:07:20;3.70;;;3.27;;
17784;SDS011;9016;53.582;10.062;2023-01-08T03:09:48;3.33;;;3.00;;
17784;SDS011;9016;53.582;10.062;2023-01-08T03:12:19;3.10;;;2.87;;
17784;SDS011;9016;53.582;10.062;2023-01-08T03:14:52;5.57;;;3.43;;
17784;SDS011;9016;53.582;10.062;2023-01-08T03:17:25;3.93;;;2.83;;
17784;SDS011;9016;53.582;10.062;2023-01-08T03:19:59;3.40;;;3.10;;
17784;SDS011;9016;53.582;10.062;2023-01-08T03:22:31;3.63;;;3.30;;
17784;SDS011;9016;53.582;10.062;2023-01-08T03:25:00;3.43;;;3.10;;
17784;SDS011;9016;53.582;10.062;2023-01-08T03:27:34;3.23;;;2.93;;
17784;SDS011;9016;53.582;10.062;2023-01-08T03:30:08;3.53;;;2.73;;
17784;SDS011;9016;53.582;10.062;2023-01-08T03:32:38;3.20;;;2.90;;
17784;SDS011;9016;53.582;10.062;2023-01-08T03:35:08;3.20;;;2.90;;
17784;SDS011;9016;53.582;10.062;2023-01-08T03:37:39;3.00;;;2.70;;
17784;SDS011;9016;53.582;10.062;2023-01-08T03:40:10;3.37;;;3.07;;
17784;SDS011;9016;53.582;10.062;2023-01-08T03:42:44;3.80;;;2.73;;
17784;SDS011;9016;53.582;10.062;2023-01-08T03:45:12;3.07;;;2.80;;
17784;SDS011;9016;53.582;10.062;2023-01-08T03:47:40;2.97;;;2.70;;
17784;SDS011;9016;53.582;10.062;2023-01-08T03:50:13;4.67;;;2.90;;
17784;SDS011;9016;53.582;10.062;2023-01-08T03:52:44;3.63;;;2.87;;
17784;SDS011;9016;53.582;10.062;2023-01-08T03:55:12;3.47;;;2.77;;
17784;SDS011;9016;53.582;10.062;2023-01-08T03:57:40;5.13;;;3.50;;
17784;SDS011;9016;53.582;10.062;2023-01-08T04:00:10;3.50;;;2.73;;
17784;SDS011;9016;53.582;10.062;2023-01-08T04:02:38;2.93;;;2.73;;
17784;SDS011;9016;53.582;10.062;2023-01-08T04:05:07;3.10;;;2.80;;
17784;SDS011;9016;53.582;10.062;2023-01-08T04:07:36;3.30;;;3.00;;
17784;SDS011;9016;53.582;10.062;2023-01-08T04:10:04;3.20;;;2.83;;
17784;SDS011;9016;53.582;10.062;2023-01-08T04:12:32;3.40;;;3.07;;
17784;SDS011;9016;53.582;10.062;2023-01-08T04:15:03;4.83;;;2.90;;
17784;SDS011;9016;53.582;10.062;2023-01-08T04:17:32;4.43;;;3.10;;
17784;SDS011;9016;53.582;10.062;2023-01-08T04:20:00;3.70;;;3.07;;
17784;SDS011;9016;53.582;10.062;2023-01-08T04:22:28;5.00;;;3.13;;
17784;SDS011;9016;53.582;10.062;2023-01-08T04:24:56;3.70;;;3.00;;
17784;SDS011;9016;53.582;10.062;2023-01-08T04:27:24;4.23;;;2.90;;
17784;SDS011;9016;53.582;10.062;2023-01-08T04:29:52;3.20;;;2.90;;
17784;SDS011;9016;53.582;10.062;2023-01-08T04:32:19;3.33;;;3.03;;
17784;SDS011;9016;53.582;10.062;2023-01-08T04:34:49;3.40;;;3.10;;
17784;SDS011;9016;53.582;10.062;2023-01-08T04:37:17;4.17;;;3.20;;
17784;SDS011;9016;53.582;10.062;2023-01-08T04:39:44;3.33;;;2.80;;
17784;SDS011;9016;53.582;10.062;2023-01-08T04:42:12;3.30;;;3.00;;
17784;SDS011;9016;53.582;10.062;2023-01-08T04:44:40;3.50;;;2.97;;
17784;SDS011;9016;53.582;10.062;2023-01-08T04:47:08;3.50;;;3.03;;
17784;SDS011;9016;53.582;10.062;2023-01-08T04:49:36;3.07;;;2.80;;
17784;SDS011;9016;53.582;10.062;2023-01-08T04:52:06;3.10;;;2.80;;
17784;SDS011;9016;53.582;10.062;2023-01-08T04:54:34;4.53;;;3.27;;
17784;SDS011;9016;53.582;10.062;2023-01-08T04:57:02;3.77;;;3.00;;
17784;SDS011;9016;53.582;10.062;2023-01-08T04:59:30;4.53;;;3.23;;
17784;SDS011;9016;53.582;10.062;2023-01-08T05:01:58;4.07;;;2.90;;
17784;SDS011;9016;53.582;10.062;2023-01-08T05:04:26;3.57;;;3.20;;
17784;SDS011;9016;53.582;10.062;2023-01-08T05:06:54;4.47;;;3.03;;
17784;SDS011;9016;53.582;10.062;2023-01-08T05:09:23;3.87;;;2.93;;
17784;SDS011;9016;53.582;10.062;2023-01-08T05:11:51;4.33;;;2.67;;
17784;SDS011;9016;53.582;10.062;2023-01-08T05:14:19;3.20;;;2.80;;
17784;SDS011;9016;53.582;10.062;2023-01-08T05:16:47;3.17;;;2.87;;
17784;SDS011;9016;53.582;10.062;2023-01-08T05:19:15;3.60;;;3.30;;
17784;SDS011;9016;53.582;10.062;2023-01-08T05:21:43;3.47;;;3.13;;
17784;SDS011;9016;53.582;10.062;2023-01-08T05:24:11;3.30;;;3.00;;
17784;SDS011;9016;53.582;10.062;2023-01-08T05:26:40;2.90;;;2.70;;
17784;SDS011;9016;53.582;10.062;2023-01-08T05:29:08;3.20;;;2.70;;
17784;SDS011;9016;53.582;10.062;2023-01-08T05:31:36;3.90;;;3.10;;
17784;SDS011;9016;53.582;10.062;2023-01-08T05:34:04;2.97;;;2.60;;
17784;SDS011;9016;53.582;10.062;2023-01-08T05:36:32;3.53;;;3.10;;
17784;SDS011;9016;53.582;10.062;2023-01-08T05:39:00;2.80;;;2.60;;
17784;SDS011;9016;53.582;10.062;2023-01-08T05:41:28;3.30;;;2.97;;
17784;SDS011;9016;53.582;10.062;2023-01-08T05:43:58;2.90;;;2.70;;
17784;SDS011;9016;53.582;10.062;2023-01-08T05:46:26;4.13;;;3.10;;
17784;SDS011;9016;53.582;10.062;2023-01-08T05:48:54;3.00;;;2.57;;
17784;SDS011;9016;53.582;10.062;2023-01-08T05:51:23;3.47;;;2.87;;
17784;SDS011;9016;53.582;10.062;2023-01-08T05:53:51;3.30;;;3.00;;
17784;SDS011;9016;53.582;10.062;2023-01-08T05:56:19;3.10;;;2.80;;
17784;SDS011;9016;53.582;10.062;2023-01-08T05:58:47;2.90;;;2.70;;
17784;SDS011;9016;53.582;10.062;2023-01-08T06:01:16;2.90;;;2.67;;
17784;SDS011;9016;53.582;10.062;2023-01-08T06:03:44;4.80;;;2.90;;
17784;SDS011;9016;53.582;10.062;2023-01-08T06:06:12;3.03;;;2.80;;
17784;SDS011;9016;53.582;10.062;2023-01-08T06:08:41;3.33;;;2.90;;
17784;SDS011;9016;53.582;10.062;2023-01-08T06:11:09;3.00;;;2.80;;
17784;SDS011;9016;53.582;10.062;2023-01-08T06:13:40;4.00;;;2.60;;
17784;SDS011;9016;53.582;10.062;2023-01-08T06:16:09;2.70;;;2.50;;
17784;SDS011;9016;53.582;10.062;2023-01-08T06:18:38;3.10;;;2.60;;
17784;SDS011;9016;53.582;10.062;2023-01-08T06:21:06;3.30;;;3.00;;
17784;SDS011;9016;53.582;10.062;2023-01-08T06:23:34;2.93;;;2.63;;
17784;SDS011;9016;53.582;10.062;2023-01-08T06:26:02;3.43;;;3.03;;
17784;SDS011;9016;53.582;10.062;2023-01-08T06:28:30;2.83;;;2.50;;
17784;SDS011;9016;53.582;10.062;2023-01-08T06:30:59;4.63;;;2.80;;
17784;SDS011;9016;53.582;10.062;2023-01-08T06:33:28;3.40;;;3.10;;
17784;SDS011;9016;53.582;10.062;2023-01-08T06:35:59;4.20;;;3.23;;
17784;SDS011;9016;53.582;10.062;2023-01-08T06:38:30;3.00;;;2.80;;
17784;SDS011;9016;53.582;10.062;2023-01-08T06:41:01;4.00;;;2.80;;
17784;SDS011;9016;53.582;10.062;2023-01-08T06:43:29;3.93;;;3.07;;
17784;SDS011;9016;53.582;10.062;2023-01-08T06:46:01;5.00;;;2.80;;
17784;SDS011;9016;53.582;10.062;2023-01-08T06:48:29;3.30;;;3.00;;
17784;SDS011;9016;53.582;10.062;2023-01-08T06:50:59;3.93;;;2.83;;
17784;SDS011;9016;53.582;10.062;2023-01-08T06:53:28;3.20;;;2.87;;
17784;SDS011;9016;53.582;10.062;2023-01-08T06:55:56;3.30;;;3.00;;
17784;SDS011;9016;53.582;10.062;2023-01-08T06:58:24;3.23;;;2.93;;
17784;SDS011;9016;53.582;10.062;2023-01-08T07:00:53;3.97;;;2.80;;
17784;SDS011;9016;53.582;10.062;2023-01-08T07:03:21;3.30;;;2.90;;
17784;SDS011;9016;53.582;10.062;2023-01-08T07:05:49;3.70;;;3.10;;
17784;SDS011;9016;53.582;10.062;2023-01-08T07:08:18;3.03;;;2.83;;
17784;SDS011;9016;53.582;10.062;2023-01-08T07:10:46;4.43;;;3.20;;
17784;SDS011;9016;53.582;10.062;2023-01-08T07:13:14;4.20;;;3.67;;
17784;SDS011;9016;53.582;10.062;2023-01-08T07:15:42;3.40;;;3.10;;
17784;SDS011;9016;53.582;10.062;2023-01-08T07:18:10;4.30;;;3.00;;
17784;SDS011;9016;53.582;10.062;2023-01-08T07:20:39;3.93;;;3.10;;
17784;SDS011;9016;53.582;10.062;2023-01-08T07:23:08;3.97;;;2.90;;
17784;SDS011;9016;53.582;10.062;2023-01-08T07:25:39;3.43;;;3.10;;
17784;SDS011;9016;53.582;10.062;2023-01-08T07:28:08;3.00;;;2.80;;
17784;SDS011;9016;53.582;10.062;2023-01-08T07:30:38;3.20;;;2.90;;
17784;SDS011;9016;53.582;10.062;2023-01-08T07:33:06;4.07;;;3.20;;
17784;SDS011;9016;53.582;10.062;2023-01-08T07:35:34;3.00;;;2.80;;
17784;SDS011;9016;53.582;10.062;2023-01-08T07:38:04;4.20;;;3.10;;
17784;SDS011;9016;53.582;10.062;2023-01-08T07:40:32;3.73;;;2.83;;
17784;SDS011;9016;53.582;10.062;2023-01-08T07:43:02;3.30;;;3.00;;
17784;SDS011;9016;53.582;10.062;2023-01-08T07:45:31;3.10;;;2.90;;
17784;SDS011;9016;53.582;10.062;2023-01-08T07:47:59;3.80;;;2.93;;
17784;SDS011;9016;53.582;10.062;2023-01-08T07:50:27;3.83;;;3.50;;
17784;SDS011;9016;53.582;10.062;2023-01-08T07:52:56;4.27;;;3.40;;
17784;SDS011;9016;53.582;10.062;2023-01-08T07:55:24;3.73;;;3.10;;
17784;SDS011;9016;53.582;10.062;2023-01-08T07:57:52;6.93;;;3.60;;
17784;SDS011;9016;53.582;10.062;2023-01-08T08:00:21;3.17;;;2.83;;
17784;SDS011;9016;53.582;10.062;2023-01-08T08:02:49;3.40;;;3.10;;
17784;SDS011;9016;53.582;10.062;2023-01-08T08:05:18;3.20;;;2.90;;
17784;SDS011;9016;53.582;10.062;2023-01-08T08:07:45;3.67;;;3.30;;
17784;SDS011;9016;53.582;10.062;2023-01-08T08:10:13;3.43;;;3.13;;
17784;SDS011;9016;53.582;10.062;2023-01-08T08:12:43;4.07;;;3.20;;
17784;SDS011;9016;53.582;10.062;2023-01-08T08:15:11;3.23;;;2.90;;
17784;SDS011;9016;53.582;10.062;2023-01-08T08:17:40;4.73;;;2.80;;
17784;SDS011;9016;53.582;10.062;2023-01-08T08:20:11;6.03;;;3.13;;
17784;SDS011;9016;53.582;10.062;2023-01-08T08:22:39;3.33;;;3.03;;
17784;SDS011;9016;53.582;10.062;2023-01-08T08:25:07;3.37;;;3.07;;
17784;SDS011;9016;53.582;10.062;2023-01-08T08:27:36;3.67;;;3.33;;
17784;SDS011;9016;53.582;10.062;2023-01-08T08:30:04;4.20;;;3.63;;
17784;SDS011;9016;53.582;10.062;2023-01-08T08:32:33;4.37;;;3.70;;
17784;SDS011;9016;53.582;10.062;2023-01-08T08:35:03;3.80;;;3.50;;
17784;SDS011;9016;53.582;10.062;2023-01-08T08:37:32;5.80;;;3.23;;
17784;SDS011;9016;53.582;10.062;2023-01-08T08:40:00;4.50;;;3.93;;
17784;SDS011;9016;53.582;10.062;2023-01-08T08:42:28;4.17;;;3.27;;
17784;SDS011;9016;53.582;10.062;2023-01-08T08:44:56;4.77;;;3.47;;
17784;SDS011;9016;53.582;10.062;2023-01-08T08:47:24;3.50;;;3.20;;
17784;SDS011;9016;53.582;10.062;2023-01-08T08:49:52;4.40;;;3.70;;
17784;SDS011;9016;53.582;10.062;2023-01-08T08:52:21;5.47;;;3.70;;
17784;SDS011;9016;53.582;10.062;2023-01-08T08:54:49;3.77;;;3.30;;
17784;SDS011;9016;53.582;10.062;2023-01-08T08:57:17;3.83;;;3.47;;
17784;SDS011;9016;53.582;10.062;2023-01-08T08:59:45;3.50;;;3.20;;
17784;SDS011;9016;53.582;10.062;2023-01-08T09:02:13;3.63;;;3.20;;
17784;SDS011;9016;53.582;10.062;2023-01-08T09:04:41;5.37;;;3.30;;
17784;SDS011;9016;53.582;10.062;2023-01-08T09:07:09;4.63;;;3.30;;
17784;SDS011;9016;53.582;10.062;2023-01-08T09:09:40;4.00;;;3.30;;
17784;SDS011;9016;53.582;10.062;2023-01-08T09:12:08;4.43;;;3.30;;
17784;SDS011;9016;53.582;10.062;2023-01-08T09:14:36;3.83;;;3.53;;
17784;SDS011;9016;53.582;10.062;2023-01-08T09:17:04;4.43;;;3.77;;
17784;SDS011;9016;53.582;10.062;2023-01-08T09:19:32;3.77;;;3.47;;
17784;SDS011;9016;53.582;10.062;2023-01-08T09:22:00;4.50;;;3.90;;
17784;SDS011;9016;53.582;10.062;2023-01-08T09:24:29;3.60;;;3.30;;
17784;SDS011;9016;53.582;10.062;2023-01-08T09:26:59;3.67;;;3.10;;
17784;SDS011;9016;53.582;10.062;2023-01-08T09:29:27;5.17;;;2.93;;
17784;SDS011;9016;53.582;10.062;2023-01-08T09:31:54;3.13;;;2.83;;
17784;SDS011;9016;53.582;10.062;2023-01-08T09:34:25;3.80;;;3.30;;
17784;SDS011;9016;53.582;10.062;2023-01-08T09:36:53;3.60;;;3.30;;
17784;SDS011;9016;53.582;10.062;2023-01-08T09:39:21;4.10;;;3.50;;
17784;SDS011;9016;53.582;10.062;2023-01-08T09:41:49;3.70;;;3.40;;
17784;SDS011;9016;53.582;10.062;2023-01-08T09:44:20;4.23;;;3.13;;
17784;SDS011;9016;53.582;10.062;2023-01-08T09:46:53;6.10;;;3.60;;
17784;SDS011;9016;53.582;10.062;2023-01-08T09:49:23;3.97;;;3.43;;
17784;SDS011;9016;53.582;10.062;2023-01-08T09:51:55;4.10;;;3.17;;
17784;SDS011;9016;53.582;10.062;2023-01-08T09:54:24;4.10;;;3.27;;
17784;SDS011;9016;53.582;10.062;2023-01-08T09:56:53;4.40;;;2.90;;
17784;SDS011;9016;53.582;10.062;2023-01-08T09:59:22;3.90;;;3.30;;
17784;SDS011;9016;53.582;10.062;2023-01-08T10:01:50;3.37;;;3.07;;
17784;SDS011;9016;53.582;10.062;2023-01-08T10:04:20;4.63;;;3.47;;
17784;SDS011;9016;53.582;10.062;2023-01-08T10:06:49;3.30;;;3.00;;
17784;SDS011;9016;53.582;10.062;2023-01-08T10:09:22;3.60;;;3.30;;
17784;SDS011;9016;53.582;10.062;2023-01-08T10:11:54;3.43;;;3.00;;
17784;SDS011;9016;53.582;10.062;2023-01-08T10:14:28;3.20;;;2.90;;
17784;SDS011;9016;53.582;10.062;2023-01-08T10:16:58;4.07;;;3.33;;
17784;SDS011;9016;53.582;10.062;2023-01-08T10:19:29;3.40;;;2.87;;
17784;SDS011;9016;53.582;10.062;2023-01-08T10:21:57;2.97;;;2.77;;
17784;SDS011;9016;53.582;10.062;2023-01-08T10:24:32;4.17;;;3.00;;
17784;SDS011;9016;53.582;10.062;2023-01-08T10:27:04;5.40;;;3.50;;
17784;SDS011;9016;53.582;10.062;2023-01-08T10:29:34;4.37;;;3.20;;
17784;SDS011;9016;53.582;10.062;2023-01-08T10:32:06;4.93;;;3.10;;
17784;SDS011;9016;53.582;10.062;2023-01-08T10:34:42;4.13;;;2.87;;
17784;SDS011;9016;53.582;10.062;2023-01-08T10:37:16;3.00;;;2.60;;
17784;SDS011;9016;53.582;10.062;2023-01-08T10:39:50;2.93;;;2.40;;
17784;SDS011;9016;53.582;10.062;2023-01-08T10:42:20;4.70;;;2.63;;
17784;SDS011;9016;53.582;10.062;2023-01-08T10:44:53;2.97;;;2.60;;
17784;SDS011;9016;53.582;10.062;2023-01-08T10:47:25;3.50;;;2.60;;
17784;SDS011;9016;53.582;10.062;2023-01-08T10:49:54;3.37;;;2.70;;
17784;SDS011;9016;53.582;10.062;2023-01-08T10:52:26;3.63;;;3.00;;
17784;SDS011;9016;53.582;10.062;2023-01-08T10:54:57;3.87;;;2.60;;
17784;SDS011;9016;53.582;10.062;2023-01-08T10:57:39;3.53;;;3.10;;
17784;SDS011;9016;53.582;10.062;2023-01-08T11:02:56;4.37;;;2.80;;
17784;SDS011;9016;53.582;10.062;2023-01-08T11:05:30;4.33;;;2.40;;
17784;SDS011;9016;53.582;10.062;2023-01-08T11:07:59;5.77;;;2.63;;
17784;SDS011;9016;53.582;10.062;2023-01-08T11:10:31;3.23;;;2.43;;
17784;SDS011;9016;53.582;10.062;2023-01-08T11:13:01;3.83;;;2.30;;
17784;SDS011;9016;53.582;10.062;2023-01-08T11:15:33;2.40;;;2.20;;
17784;SDS011;9016;53.582;10.062;2023-01-08T11:18:15;3.63;;;2.53;;
17784;SDS011;9016;53.582;10.062;2023-01-08T11:20:45;3.53;;;2.40;;
17784;SDS011;9016;53.582;10.062;2023-01-08T11:23:15;3.50;;;2.90;;
17784;SDS011;9016;53.582;10.062;2023-01-08T11:25:53;2.80;;;2.60;;
17784;SDS011;9016;53.582;10.062;2023-01-08T11:28:28;4.90;;;2.70;;
17784;SDS011;9016;53.582;10.062;2023-01-08T11:31:12;3.33;;;3.03;;
17784;SDS011;9016;53.582;10.062;2023-01-08T11:33:44;4.50;;;2.90;;
17784;SDS011;9016;53.582;10.062;2023-01-08T11:36:19;4.37;;;3.27;;
17784;SDS011;9016;53.582;10.062;2023-01-08T11:38:51;3.40;;;3.10;;
17784;SDS011;9016;53.582;10.062;2023-01-08T11:41:26;3.87;;;2.87;;
17784;SDS011;9016;53.582;10.062;2023-01-08T11:44:10;3.70;;;3.40;;
17784;SDS011;9016;53.582;10.062;2023-01-08T11:46:49;4.17;;;3.10;;
17784;SDS011;9016;53.582;10.062;2023-01-08T11:49:32;4.83;;;3.43;;
17784;SDS011;9016;53.582;10.062;2023-01-08T11:52:21;4.13;;;3.53;;
17784;SDS011;9016;53.582;10.062;2023-01-08T11:58:04;7.03;;;4.23;;
17784;SDS011;9016;53.582;10.062;2023-01-08T12:00:58;4.03;;;3.63;;
17784;SDS011;9016;53.582;10.062;2023-01-08T12:03:41;3.93;;;3.30;;
17784;SDS011;9016;53.582;10.062;2023-01-08T12:06:16;4.77;;;3.40;;
17784;SDS011;9016;53.582;10.062;2023-01-08T12:09:00;4.97;;;4.10;;
17784;SDS011;9016;53.582;10.062;2023-01-08T12:11:38;6.87;;;5.27;;
17784;SDS011;9016;53.582;10.062;2023-01-08T12:14:18;4.67;;;3.40;;
17784;SDS011;9016;53.582;10.062;2023-01-08T12:17:02;5.03;;;3.60;;
17784;SDS011;9016;53.582;10.062;2023-01-08T12:19:58;3.20;;;2.90;;
17784;SDS011;9016;53.582;10.062;2023-01-08T12:22:41;3.17;;;2.87;;
17784;SDS011;9016;53.582;10.062;2023-01-08T12:25:21;3.43;;;3.00;;
17784;SDS011;9016;53.582;10.062;2023-01-08T12:28:06;2.90;;;2.70;;
17784;SDS011;9016;53.582;10.062;2023-01-08T12:30:45;4.77;;;2.90;;
17784;SDS011;9016;53.582;10.062;2023-01-08T12:33:31;4.00;;;2.43;;
17784;SDS011;9016;53.582;10.062;2023-01-08T12:36:05;6.20;;;2.40;;
17784;SDS011;9016;53.582;10.062;2023-01-08T12:38:36;2.97;;;2.50;;
17784;SDS011;9016;53.582;10.062;2023-01-08T12:41:08;4.53;;;2.60;;
17784;SDS011;9016;53.582;10.062;2023-01-08T12:43:42;3.30;;;2.60;;
17784;SDS011;9016;53.582;10.062;2023-01-08T12:46:19;3.13;;;2.50;;
17784;SDS011;9016;53.582;10.062;2023-01-08T12:48:49;3.03;;;2.53;;
17784;SDS011;9016;53.582;10.062;2023-01-08T12:51:23;2.63;;;2.23;;
17784;SDS011;9016;53.582;10.062;2023-01-08T12:53:57;3.20;;;2.67;;
17784;SDS011;9016;53.582;10.062;2023-01-08T12:56:35;4.17;;;2.97;;
17784;SDS011;9016;53.582;10.062;2023-01-08T13:02:06;3.37;;;2.90;;
17784;SDS011;9016;53.582;10.062;2023-01-08T13:04:42;3.73;;;2.50;;
17784;SDS011;9016;53.582;10.062;2023-01-08T13:07:17;3.90;;;2.60;;
17784;SDS011;9016;53.582;10.062;2023-01-08T13:09:52;3.07;;;2.63;;
17784;SDS011;9016;53.582;10.062;2023-01-08T13:12:25;2.93;;;2.60;;
17784;SDS011;9016;53.582;10.062;2023-01-08T13:14:59;3.40;;;2.77;;
17784;SDS011;9016;53.582;10.062;2023-01-08T13:17:27;3.13;;;2.53;;
17784;SDS011;9016;53.582;10.062;2023-01-08T13:19:58;5.37;;;2.80;;
17784;SDS011;9016;53.582;10.062;2023-01-08T13:22:31;3.10;;;2.80;;
17784;SDS011;9016;53.582;10.062;2023-01-08T13:27:56;2.60;;;2.40;;
17784;SDS011;9016;53.582;10.062;2023-01-08T13:30:30;3.53;;;2.70;;
17784;SDS011;9016;53.582;10.062;2023-01-08T13:33:00;3.30;;;2.60;;
17784;SDS011;9016;53.582;10.062;2023-01-08T13:35:30;2.80;;;2.33;;
17784;SDS011;9016;53.582;10.062;2023-01-08T13:38:12;3.20;;;2.60;;
17784;SDS011;9016;53.582;10.062;2023-01-08T13:40:49;4.43;;;2.80;;
17784;SDS011;9016;53.582;10.062;2023-01-08T13:43:19;3.30;;;2.40;;
17784;SDS011;9016;53.582;10.062;2023-01-08T13:45:53;3.43;;;2.53;;
17784;SDS011;9016;53.582;10.062;2023-01-08T13:48:35;5.03;;;2.80;;
17784;SDS011;9016;53.582;10.062;2023-01-08T13:51:05;2.53;;;2.03;;
17784;SDS011;9016;53.582;10.062;2023-01-08T13:54:05;3.00;;;2.37;;
17784;SDS011;9016;53.582;10.062;2023-01-08T13:56:44;3.50;;;2.83;;
17784;SDS011;9016;53.582;10.062;2023-01-08T13:59:18;3.63;;;2.60;;
17784;SDS011;9016;53.582;10.062;2023-01-08T14:01:52;4.33;;;3.53;;
17784;SDS011;9016;53.582;10.062;2023-01-08T14:04:21;4.33;;;3.33;;
17784;SDS011;9016;53.582;10.062;2023-01-08T14:06:50;3.67;;;2.37;;
17784;SDS011;9016;53.582;10.062;2023-01-08T14:09:21;2.97;;;2.17;;
17784;SDS011;9016;53.582;10.062;2023-01-08T14:11:51;5.50;;;2.97;;
17784;SDS011;9016;53.582;10.062;2023-01-08T14:14:22;4.30;;;2.60;;
17784;SDS011;9016;53.582;10.062;2023-01-08T14:16:51;3.97;;;2.20;;
17784;SDS011;9016;53.582;10.062;2023-01-08T14:19:21;4.40;;;2.60;;
17784;SDS011;9016;53.582;10.062;2023-01-08T14:21:51;3.83;;;2.20;;
17784;SDS011;9016;53.582;10.062;2023-01-08T14:24:23;4.60;;;2.40;;
17784;SDS011;9016;53.582;10.062;2023-01-08T14:26:53;3.77;;;2.17;;
17784;SDS011;9016;53.582;10.062;2023-01-08T14:29:22;5.20;;;2.00;;
17784;SDS011;9016;53.582;10.062;2023-01-08T14:31:52;4.30;;;2.07;;
17784;SDS011;9016;53.582;10.062;2023-01-08T14:34:21;4.40;;;2.27;;
17784;SDS011;9016;53.582;10.062;2023-01-08T14:36:53;6.60;;;2.10;;
17784;SDS011;9016;53.582;10.062;2023-01-08T14:39:22;5.47;;;2.30;;
17784;SDS011;9016;53.582;10.062;2023-01-08T14:41:59;4.13;;;2.00;;
17784;SDS011;9016;53.582;10.062;2023-01-08T14:45:02;4.93;;;2.40;;
17784;SDS011;9016;53.582;10.062;2023-01-08T14:47:35;6.10;;;2.60;;
17784;SDS011;9016;53.582;10.062;2023-01-08T14:50:14;5.77;;;2.30;;
17784;SDS011;9016;53.582;10.062;2023-01-08T14:52:45;5.70;;;2.60;;
17784;SDS011;9016;53.582;10.062;2023-01-08T14:55:15;5.17;;;2.23;;
17784;SDS011;9016;53.582;10.062;2023-01-08T14:57:45;5.93;;;2.33;;
17784;SDS011;9016;53.582;10.062;2023-01-08T15:00:15;4.47;;;2.47;;
17784;SDS011;9016;53.582;10.062;2023-01-08T15:02:46;4.80;;;2.27;;
17784;SDS011;9016;53.582;10.062;2023-01-08T15:05:17;4.93;;;2.27;;
17784;SDS011;9016;53.582;10.062;2023-01-08T15:07:54;4.40;;;2.20;;
17784;SDS011;9016;53.582;10.062;2023-01-08T15:10:38;6.40;;;2.60;;
17784;SDS011;9016;53.582;10.062;2023-01-08T15:13:11;6.00;;;2.60;;
17784;SDS011;9016;53.582;10.062;2023-01-08T15:15:52;5.37;;;2.57;;
17784;SDS011;9016;53.582;10.062;2023-01-08T15:18:25;6.30;;;3.60;;
17784;SDS011;9016;53.582;10.062;2023-01-08T15:20:53;7.07;;;3.70;;
17784;SDS011;9016;53.582;10.062;2023-01-08T15:23:23;7.47;;;3.93;;
17784;SDS011;9016;53.582;10.062;2023-01-08T15:25:55;7.67;;;4.00;;